Time;durP1;ratioP1;P1;durP2;ratioP2;P2;SDS_P1;SDS_P2;PMS_P1;PMS_P2;Temp;Humidity;BMP_temperature;BMP_pressure;BME280_temperature;BME280_humidity;BME280_pressure;Samples;Min_cycle;Max_cycle;Signal;HPM_P1;HPM_P2
2022/06/30 00:03:35;;;;;;;25.30;22.60;;;;;;;21.49;83.82;98379.59;220079;1276;22557;-72
2022/06/30 00:08:38;;;;;;;27.40;23.80;;;;;;;21.48;84.15;98373.80;220052;1276;25346;-72
2022/06/30 00:13:41;;;;;;;26.10;23.50;;;;;;;21.47;84.00;98364.29;219972;1276;22615;-71
2022/06/30 00:18:47;;;;;;;26.70;23.90;;;;;;;21.44;84.19;98366.27;219793;1276;341463;-70
2022/06/30 00:23:50;;;;;;;28.40;23.50;;;;;;;21.41;84.14;98363.67;220069;1276;26390;-71
2022/06/30 00:29:06;;;;;;;26.10;23.30;;;;;;;21.46;85.22;98357.20;219954;1276;22532;-71
2022/06/30 00:34:12;;;;;;;26.60;23.80;;;;;;;21.60;85.65;98343.22;220104;1276;22653;-71
2022/06/30 00:39:17;;;;;;;25.70;23.10;;;;;;;21.70;85.51;98335.23;220197;1276;22534;-71
2022/06/30 00:44:21;;;;;;;26.80;23.30;;;;;;;21.72;85.16;98327.23;220332;1276;25254;-71
2022/06/30 00:49:25;;;;;;;28.40;24.30;;;;;;;21.70;85.04;98327.73;220217;1276;23790;-71
2022/06/30 00:54:29;;;;;;;24.80;22.30;;;;;;;21.68;84.90;98321.96;220244;1276;25565;-71
2022/06/30 00:59:33;;;;;;;26.20;23.20;;;;;;;21.61;84.90;98320.94;220243;1276;22700;-71
2022/06/30 01:04:37;;;;;;;26.90;24.10;;;;;;;21.52;84.97;98318.73;220346;1276;22534;-71
2022/06/30 01:15:07;;;;;;;26.60;23.80;;;;;;;21.41;85.72;98320.63;220183;1276;25251;-71
2022/06/30 01:20:17;;;;;;;27.40;24.10;;;;;;;21.36;86.01;98320.73;220126;1276;22615;-70
2022/06/30 01:25:22;;;;;;;27.00;24.10;;;;;;;21.33;85.65;98314.94;220191;1276;25271;-73
2022/06/30 01:30:25;;;;;;;31.10;26.60;;;;;;;21.25;85.56;98317.64;220309;1276;24302;-72
2022/06/30 01:35:27;;;;;;;28.20;25.20;;;;;;;21.18;85.86;98314.67;220281;1276;25710;-71
2022/06/30 01:40:36;;;;;;;29.20;26.20;;;;;;;21.14;86.11;98320.46;220167;1276;25305;-71
2022/06/30 01:45:39;;;;;;;32.00;26.90;;;;;;;21.04;85.89;98313.17;220139;1276;22561;-72
2022/06/30 01:50:42;;;;;;;26.80;24.00;;;;;;;20.97;86.07;98306.02;220158;1276;22618;-71
2022/06/30 01:55:49;;;;;;;27.50;24.60;;;;;;;20.89;85.94;98308.48;220018;1276;25518;-71
2022/06/30 02:00:53;;;;;;;27.90;25.00;;;;;;;20.82;85.93;98319.04;220082;1276;25780;-72
2022/06/30 02:05:56;;;;;;;29.20;26.20;;;;;;;20.72;86.10;98336.78;220232;1276;25165;-70
2022/06/30 02:10:58;;;;;;;29.70;24.90;;;;;;;20.64;86.23;98341.77;219965;1276;22662;-71
2022/06/30 02:16:16;;;;;;;27.70;24.20;;;;;;;20.58;86.17;98354.81;220107;1276;22538;-71
2022/06/30 02:21:19;;;;;;;27.90;25.10;;;;;;;20.54;86.34;98350.48;220167;1276;25323;-71
2022/06/30 02:26:31;;;;;;;28.20;25.20;;;;;;;20.49;86.41;98348.70;220004;1276;22631;-70
2022/06/30 02:31:48;;;;;;;27.40;24.50;;;;;;;20.45;86.37;98355.01;219822;1276;22553;-72
2022/06/30 02:36:55;;;;;;;28.40;25.60;;;;;;;20.41;86.60;98376.17;219973;1276;25238;-70
2022/06/30 02:42:03;;;;;;;28.30;25.20;;;;;;;20.38;86.92;98382.40;220131;1276;24325;-70
2022/06/30 02:47:06;;;;;;;27.90;25.00;;;;;;;20.34;87.00;98372.39;220004;1276;22540;-71
2022/06/30 02:52:08;;;;;;;28.10;25.10;;;;;;;20.31;87.13;98383.38;219994;1276;22620;-72
2022/06/30 02:57:11;;;;;;;28.80;25.70;;;;;;;20.31;87.23;98388.20;219860;1276;25368;-71
2022/06/30 03:02:13;;;;;;;28.40;25.40;;;;;;;20.30;87.31;98399.29;219968;1276;22563;-71
2022/06/30 03:07:15;;;;;;;32.80;29.30;;;;;;;20.29;87.47;98401.44;220056;1276;22700;-71
2022/06/30 03:12:18;;;;;;;29.30;26.20;;;;;;;20.27;87.51;98408.41;219931;1276;22579;-71
2022/06/30 03:17:24;;;;;;;27.10;24.40;;;;;;;20.27;87.54;98417.89;220115;1276;24305;-70
2022/06/30 03:22:29;;;;;;;28.00;25.10;;;;;;;20.31;87.83;98429.77;219976;1276;26241;-72
2022/06/30 03:27:31;;;;;;;26.90;24.10;;;;;;;20.38;87.89;98435.78;220157;1276;22552;-70
2022/06/30 03:32:34;;;;;;;29.90;26.60;;;;;;;20.51;88.07;98432.60;219855;1276;24320;-70
2022/06/30 03:37:36;;;;;;;29.10;26.10;;;;;;;20.70;88.10;98438.28;219994;1276;24296;-70
2022/06/30 03:42:44;;;;;;;29.10;26.20;;;;;;;20.91;88.00;98437.14;220118;1276;23091;-70
2022/06/30 03:48:14;;;;;;;27.40;24.60;;;;;;;21.13;87.42;98434.30;219951;1276;24309;-71
2022/06/30 03:53:37;;;;;;;27.70;24.90;;;;;;;21.25;86.64;98424.26;220045;1276;22550;-71
2022/06/30 03:58:39;;;;;;;28.50;25.60;;;;;;;21.31;86.43;98431.58;220069;1276;22570;-70
2022/06/30 04:03:52;;;;;;;;;;;;;;;;;;;;;
2022/06/30 04:08:58;;;;;;;30.10;27.00;;;;;;;21.46;86.09;98434.73;220125;1276;26212;-71
2022/06/30 04:14:00;;;;;;;29.90;26.80;;;;;;;21.55;86.22;98443.21;219925;1276;24337;-71
2022/06/30 04:19:03;;;;;;;30.40;27.40;;;;;;;21.74;86.25;98439.33;220030;1276;22563;-72
2022/06/30 04:24:06;;;;;;;28.90;26.00;;;;;;;21.95;86.06;98436.60;219954;1276;22547;-72
2022/06/30 04:29:13;;;;;;;30.30;27.20;;;;;;;22.15;85.57;98426.84;219994;1276;22655;-71
2022/06/30 04:34:18;;;;;;;28.70;25.80;;;;;;;22.34;85.04;98431.94;220069;1276;22952;-71
2022/06/30 04:39:21;;;;;;;27.80;24.90;;;;;;;22.54;84.66;98431.90;220064;1276;22540;-74
2022/06/30 04:44:24;;;;;;;27.60;24.80;;;;;;;22.70;84.32;98432.74;219913;1277;22602;-71
2022/06/30 04:49:34;;;;;;;26.60;24.00;;;;;;;22.89;83.80;98429.67;219984;1276;22703;-71
2022/06/30 04:54:36;;;;;;;27.20;24.60;;;;;;;23.03;83.02;98429.23;219980;1276;22663;-70
2022/06/30 04:59:38;;;;;;;27.90;25.20;;;;;;;23.14;82.45;98426.90;220059;1276;25319;-71
2022/06/30 05:04:43;;;;;;;31.80;28.60;;;;;;;23.26;82.38;98424.39;219935;1276;24276;-72
2022/06/30 05:09:49;;;;;;;30.80;27.70;;;;;;;23.44;81.97;98433.00;220209;1276;22761;-71
2022/06/30 05:15:04;;;;;;;32.20;29.00;;;;;;;23.59;81.34;98439.79;220037;1276;24423;-71
2022/06/30 05:20:25;;;;;;;33.40;30.00;;;;;;;23.78;80.68;98440.34;219761;1276;22621;-71
2022/06/30 05:31:13;;;;;;;33.40;29.90;;;;;;;24.12;79.52;98437.41;219834;1276;24299;-71
2022/06/30 05:36:16;;;;;;;32.20;28.90;;;;;;;24.24;78.77;98435.56;220192;1276;26733;-72
2022/06/30 05:41:18;;;;;;;29.90;27.00;;;;;;;24.34;78.31;98435.96;220413;1276;22549;-72
2022/06/30 05:46:27;;;;;;;22.70;20.60;;;;;;;24.50;78.30;98438.40;220326;1276;22591;-71
2022/06/30 05:51:32;;;;;;;25.00;22.70;;;;;;;24.68;77.80;98440.71;220363;1276;22547;-71
2022/06/30 05:56:35;;;;;;;27.20;24.30;;;;;;;24.87;77.21;98443.30;220346;1276;23303;-70
2022/06/30 06:01:43;;;;;;;28.80;25.90;;;;;;;25.00;76.28;98439.44;219818;1274;22567;-70
2022/06/30 06:06:48;;;;;;;27.50;24.90;;;;;;;25.12;75.93;98445.05;220862;1274;22540;-70
2022/06/30 06:11:50;;;;;;;27.90;25.20;;;;;;;25.24;75.25;98444.25;220557;1276;22562;-71
2022/06/30 06:16:53;;;;;;;29.20;26.20;;;;;;;25.36;74.81;98441.34;220293;1276;24245;-72
2022/06/30 06:22:01;;;;;;;28.00;25.40;;;;;;;25.34;74.25;98437.67;220304;1275;24279;-69
2022/06/30 06:27:18;;;;;;;26.10;23.60;;;;;;;25.55;74.64;98437.92;220421;1276;23357;-71
2022/06/30 06:32:22;;;;;;;26.80;24.10;;;;;;;25.76;73.98;98438.78;220627;1274;22530;-72
2022/06/30 06:37:25;;;;;;;27.20;24.50;;;;;;;25.90;73.30;98440.37;220572;1276;25400;-71
2022/06/30 06:42:27;;;;;;;28.80;25.80;;;;;;;26.04;72.93;98446.90;220484;1276;22587;-72
2022/06/30 06:47:33;;;;;;;28.60;25.80;;;;;;;26.16;72.19;98448.96;220356;1276;22598;-72
2022/06/30 06:52:44;;;;;;;27.90;25.40;;;;;;;26.33;72.40;98457.33;220488;1276;22556;-72
2022/06/30 06:57:47;;;;;;;26.80;24.10;;;;;;;26.63;72.26;98455.47;220536;1276;26525;-72
2022/06/30 07:03:03;;;;;;;27.60;24.90;;;;;;;26.95;71.95;98465.52;220439;1276;23876;-72
2022/06/30 07:08:15;;;;;;;28.10;25.20;;;;;;;27.23;70.73;98462.09;220410;1276;22557;-71
2022/06/30 07:13:18;;;;;;;28.60;25.70;;;;;;;27.54;70.61;98463.21;220540;1276;26328;-71
2022/06/30 07:18:21;;;;;;;25.90;23.40;;;;;;;27.86;69.58;98461.89;220419;1276;22573;-72
2022/06/30 07:23:23;;;;;;;25.10;22.80;;;;;;;28.11;67.95;98454.77;220309;1275;23347;-73
2022/06/30 07:28:31;;;;;;;25.60;23.00;;;;;;;28.40;67.32;98453.46;220401;1276;24193;-72
2022/06/30 07:33:53;;;;;;;23.40;21.20;;;;;;;28.83;66.05;98451.39;220351;1276;22560;-71
2022/06/30 07:38:56;;;;;;;25.40;22.90;;;;;;;29.00;64.62;98448.75;220289;1276;22694;-72
2022/06/30 07:43:58;;;;;;;25.50;21.40;;;;;;;29.10;64.04;98456.99;220485;1276;22557;-72
2022/06/30 07:49:01;;;;;;;23.10;20.90;;;;;;;29.14;63.85;98453.05;220573;1276;22696;-73
2022/06/30 07:54:03;;;;;;;24.40;22.00;;;;;;;29.42;63.89;98450.27;220724;1276;22574;-71
2022/06/30 07:59:06;;;;;;;28.10;24.80;;;;;;;29.66;62.87;98450.42;220339;1276;25257;-71
2022/06/30 08:04:08;;;;;;;27.40;24.90;;;;;;;29.80;62.84;98447.79;220381;1276;25139;-71
2022/06/30 08:09:10;;;;;;;24.60;22.40;;;;;;;30.06;62.90;98449.15;220445;1274;22580;-71
2022/06/30 08:14:12;;;;;;;25.30;22.90;;;;;;;30.27;61.96;98452.23;220416;1276;22630;-72
2022/06/30 08:19:15;;;;;;;24.50;22.30;;;;;;;30.27;60.89;98452.80;220267;1276;22559;-71
2022/06/30 08:24:30;;;;;;;26.00;23.60;;;;;;;30.20;60.48;98453.96;220892;1274;25373;-72
2022/06/30 08:29:53;;;;;;;25.70;23.30;;;;;;;30.19;60.16;98451.87;220438;1276;22532;-70
2022/06/30 08:34:55;;;;;;;26.10;23.70;;;;;;;30.21;60.03;98453.88;220541;1276;25484;-71
2022/06/30 08:45:24;;;;;;;22.90;20.90;;;;;;;30.43;59.59;98449.81;220426;1276;22546;-75
2022/06/30 08:50:26;;;;;;;24.00;21.90;;;;;;;30.59;59.14;98444.66;220556;1276;25370;-73
2022/06/30 08:55:31;;;;;;;22.00;20.00;;;;;;;30.86;59.19;98443.81;220489;1275;24296;-73
2022/06/30 09:00:36;;;;;;;23.10;20.70;;;;;;;31.20;58.57;98442.35;220801;1275;25270;-74
2022/06/30 09:05:41;;;;;;;26.40;22.10;;;;;;;31.33;57.61;98446.49;220549;1276;26640;-75
2022/06/30 09:10:51;;;;;;;24.60;22.20;;;;;;;31.49;57.12;98448.64;220677;1276;22608;-75
2022/06/30 09:15:58;;;;;;;23.80;21.50;;;;;;;31.60;56.49;98447.67;220685;1275;22537;-75
2022/06/30 09:21:13;;;;;;;24.50;22.30;;;;;;;31.58;56.20;98446.29;220592;1276;23206;-75
2022/06/30 09:26:21;;;;;;;22.80;20.70;;;;;;;31.84;55.71;98436.85;220766;1276;23079;-74
2022/06/30 09:31:42;;;;;;;22.20;20.10;;;;;;;32.07;55.02;98440.13;220581;1276;24384;-75
2022/06/30 09:36:50;;;;;;;21.70;19.00;;;;;;;32.20;54.16;98438.08;220595;1276;22589;-75
2022/06/30 09:41:53;;;;;;;20.10;18.30;;;;;;;32.33;53.29;98434.52;220743;1276;23364;-74
2022/06/30 09:47:01;;;;;;;20.00;18.30;;;;;;;32.42;52.37;98437.05;220605;1276;22782;-74
2022/06/30 09:52:21;;;;;;;15.60;14.30;;;;;;;32.46;51.13;98433.55;220581;1275;22641;-74
2022/06/30 09:57:26;;;;;;;15.00;13.80;;;;;;;32.63;49.45;98427.23;220630;1276;22582;-74
2022/06/30 10:02:42;;;;;;;18.00;16.40;;;;;;;32.70;49.64;98429.14;220725;1276;22616;-74
2022/06/30 10:08:01;;;;;;;16.40;15.10;;;;;;;32.71;49.29;98422.06;220660;1276;24902;-74
2022/06/30 10:13:05;;;;;;;17.60;16.00;;;;;;;32.96;48.90;98420.20;220600;1276;23317;-74
2022/06/30 10:18:08;;;;;;;17.70;16.00;;;;;;;33.34;48.69;98419.81;220591;1276;22732;-74
2022/06/30 10:23:13;;;;;;;14.30;13.20;;;;;;;33.63;48.57;98416.88;220837;1276;24266;-75
2022/06/30 10:28:24;;;;;;;17.50;15.90;;;;;;;33.70;47.46;98413.42;220685;1276;23451;-76
2022/06/30 10:33:46;;;;;;;17.50;16.10;;;;;;;33.76;47.11;98411.41;220815;1276;22570;-73
2022/06/30 10:39:09;;;;;;;17.40;15.70;;;;;;;33.71;47.14;98406.98;220606;1276;23023;-74
2022/06/30 10:44:14;;;;;;;18.40;16.80;;;;;;;33.87;47.02;98398.30;220798;1276;22578;-75
2022/06/30 10:49:17;;;;;;;14.80;13.60;;;;;;;34.05;46.88;98397.17;220738;1276;22688;-75
2022/06/30 10:54:32;;;;;;;15.40;14.10;;;;;;;34.11;45.47;98395.60;220506;1276;25417;-74
2022/06/30 10:59:42;;;;;;;18.30;15.40;;;;;;;34.10;45.42;98390.96;220315;1276;22661;-75
2022/06/30 11:05:26;;;;;;;16.50;15.10;;;;;;;34.15;45.75;98388.48;220603;1277;23113;-75
2022/06/30 11:10:28;;;;;;;14.30;13.20;;;;;;;34.25;45.01;98387.66;220322;1276;26256;-75
2022/06/30 11:15:51;;;;;;;15.60;14.30;;;;;;;34.19;42.91;98382.57;220217;1276;22548;-75
2022/06/30 11:20:55;;;;;;;14.60;13.20;;;;;;;34.22;43.85;98379.38;220285;1277;22612;-75
2022/06/30 11:31:34;;;;;;;13.60;12.40;;;;;;;34.89;43.16;98368.11;220235;1277;24229;-74
2022/06/30 11:36:39;;;;;;;11.40;10.50;;;;;;;35.14;42.10;98368.40;220361;1276;25303;-75
2022/06/30 11:41:57;;;;;;;11.80;10.80;;;;;;;35.11;39.43;98361.70;220554;1276;22610;-73
2022/06/30 11:47:04;;;;;;;;;;;;;;;34.87;39.76;98354.30;220247;1277;24311;-73
2022/06/30 11:52:29;;;;;;;11.20;10.30;;;;;;;34.96;39.69;98353.05;220529;1277;22679;-73
2022/06/30 11:57:34;;;;;;;12.00;10.90;;;;;;;35.08;38.93;98349.64;220407;1276;22588;-72
2022/06/30 12:02:39;;;;;;;10.50;9.60;;;;;;;35.11;38.72;98345.92;220298;1276;25327;-72
2022/06/30 12:07:47;;;;;;;9.90;9.10;;;;;;;35.22;37.86;98337.16;220476;1278;25262;-73
2022/06/30 12:12:50;;;;;;;9.00;8.30;;;;;;;35.39;37.64;98325.92;220452;1276;22742;-73
2022/06/30 12:17:53;;;;;;;10.00;9.20;;;;;;;35.56;37.63;98320.69;220046;1277;406955;-74
2022/06/30 12:22:56;;;;;;;9.70;8.90;;;;;;;35.73;37.63;98318.64;220345;1277;25953;-74
2022/06/30 12:27:59;;;;;;;11.30;10.30;;;;;;;35.91;37.23;98314.83;220435;1276;22706;-74
2022/06/30 12:33:04;;;;;;;11.00;10.10;;;;;;;36.00;37.42;98308.33;219859;1275;24268;-74
2022/06/30 12:38:22;;;;;;;10.90;10.10;;;;;;;36.05;37.07;98308.74;220276;1276;22580;-75
2022/06/30 12:43:24;;;;;;;10.80;10.00;;;;;;;35.89;36.34;98301.91;220176;1276;23224;-74
2022/06/30 12:48:45;;;;;;;10.10;9.20;;;;;;;35.83;36.78;98297.27;220303;1276;25413;-76
2022/06/30 12:53:48;;;;;;;11.00;9.80;;;;;;;35.87;36.42;98294.73;220252;1277;22720;-74
2022/06/30 12:59:00;;;;;;;11.10;10.20;;;;;;;35.85;36.56;98295.08;220132;1276;31877;-74
2022/06/30 13:04:11;;;;;;;10.50;9.60;;;;;;;36.03;37.09;98292.02;220122;1278;22563;-74
2022/06/30 13:09:19;;;;;;;10.60;9.60;;;;;;;36.33;36.86;98295.96;220169;1281;22588;-74
2022/06/30 13:14:24;;;;;;;11.10;10.10;;;;;;;36.67;36.80;98286.22;220143;1278;22552;-72
2022/06/30 13:19:29;;;;;;;10.30;9.40;;;;;;;36.82;35.70;98277.29;220407;1278;22556;-73
2022/06/30 13:24:32;;;;;;;10.80;10.00;;;;;;;36.86;35.57;98275.83;220021;1278;22581;-72
2022/06/30 13:29:38;;;;;;;10.10;9.30;;;;;;;36.72;35.23;98280.42;220298;1277;26327;-73
2022/06/30 13:34:40;;;;;;;10.70;9.70;;;;;;;36.51;35.15;98287.20;220444;1278;23185;-72
2022/06/30 13:39:43;;;;;;;10.90;10.00;;;;;;;36.47;35.51;98290.34;220383;1278;23359;-72
2022/06/30 13:44:45;;;;;;;11.80;10.80;;;;;;;36.49;35.33;98287.77;220214;1278;22610;-72
2022/06/30 13:49:47;;;;;;;11.10;10.10;;;;;;;36.43;35.37;98275.52;220008;1278;28532;-73
2022/06/30 13:54:49;;;;;;;11.60;10.60;;;;;;;36.19;35.19;98266.07;219999;1278;22583;-75
2022/06/30 13:59:51;;;;;;;15.10;11.50;;;;;;;35.83;35.73;98272.39;220118;1278;22593;-73
2022/06/30 14:04:59;;;;;;;12.30;11.40;;;;;;;35.49;36.50;98275.20;219801;1278;25331;-72
2022/06/30 14:10:15;;;;;;;12.90;11.80;;;;;;;35.17;37.10;98266.06;219669;1277;22804;-71
2022/06/30 14:15:19;;;;;;;11.40;10.30;;;;;;;34.85;37.60;98283.07;219744;1278;23045;-71
2022/06/30 14:20:21;;;;;;;10.60;9.20;;;;;;;34.33;37.88;98286.15;219701;1277;22558;-71
2022/06/30 14:25:26;;;;;;;10.70;8.50;;;;;;;33.70;38.52;98295.60;219752;1278;24335;-70
2022/06/30 14:30:30;;;;;;;9.00;8.00;;;;;;;33.05;39.19;98305.08;219682;1278;22666;-70
2022/06/30 14:35:32;;;;;;;10.60;8.60;;;;;;;32.42;40.07;98296.36;219914;1278;22545;-71
2022/06/30 14:40:39;;;;;;;8.90;8.00;;;;;;;31.93;40.83;98278.16;219734;1278;24264;-72
2022/06/30 14:45:42;;;;;;;8.60;7.80;;;;;;;31.54;41.12;98257.10;219659;1278;24123;-71
2022/06/30 14:50:44;;;;;;;10.70;9.70;;;;;;;31.26;41.66;98251.67;219663;1277;25368;-71
2022/06/30 14:55:47;;;;;;;10.60;8.80;;;;;;;31.06;42.12;98257.07;219606;1277;22668;-71
2022/06/30 15:00:49;;;;;;;9.60;8.70;;;;;;;30.97;42.62;98248.86;219730;1278;23953;-72
2022/06/30 15:06:11;;;;;;;9.60;8.10;;;;;;;30.95;42.93;98243.23;219778;1277;22618;-71
2022/06/30 15:11:18;;;;;;;10.30;9.20;;;;;;;30.95;43.04;98238.98;219658;1278;25356;-71
2022/06/30 15:16:21;;;;;;;9.00;8.20;;;;;;;30.96;43.19;98243.36;219890;1277;25440;-72
2022/06/30 15:26:48;;;;;;;10.00;9.20;;;;;;;31.13;44.11;98253.64;219711;1277;24133;-71
2022/06/30 15:32:06;;;;;;;10.00;8.40;;;;;;;31.25;44.50;98260.73;219699;1278;22608;-71
2022/06/30 15:37:26;;;;;;;8.60;7.80;;;;;;;31.36;44.99;98259.44;219806;1278;25315;-71
2022/06/30 15:42:31;;;;;;;9.10;8.20;;;;;;;31.41;45.76;98255.71;219843;1278;24574;-71
2022/06/30 15:47:33;;;;;;;9.80;8.90;;;;;;;31.44;46.05;98256.45;219655;1277;24178;-72
2022/06/30 15:52:35;;;;;;;11.20;9.50;;;;;;;31.47;47.38;98261.16;219796;1276;24451;-72
2022/06/30 15:57:53;;;;;;;11.70;10.50;;;;;;;31.50;47.77;98259.95;219648;1278;22801;-71
2022/06/30 16:02:57;;;;;;;11.50;10.40;;;;;;;31.70;48.14;98259.91;219784;1277;22563;-71
2022/06/30 16:08:04;;;;;;;10.30;9.40;;;;;;;32.00;47.06;98259.65;219572;1277;24308;-72
2022/06/30 16:13:06;;;;;;;10.60;9.50;;;;;;;32.32;46.65;98264.25;219369;1277;22668;-71
2022/06/30 16:18:12;;;;;;;10.20;9.20;;;;;;;32.70;46.21;98265.14;219922;1276;22636;-70
2022/06/30 16:23:15;;;;;;;10.20;9.30;;;;;;;33.12;45.64;98265.52;219804;1278;22752;-71
2022/06/30 16:28:19;;;;;;;10.30;9.30;;;;;;;33.59;44.68;98257.32;219807;1278;22959;-71
2022/06/30 16:33:21;;;;;;;10.70;9.70;;;;;;;33.89;43.58;98240.85;219945;1276;26801;-71
2022/06/30 16:38:23;;;;;;;10.60;9.70;;;;;;;34.15;43.22;98234.19;219833;1276;22502;-71
2022/06/30 16:43:26;;;;;;;10.60;9.60;;;;;;;34.34;42.57;98237.00;220003;1277;25279;-72
2022/06/30 16:48:29;;;;;;;10.90;9.80;;;;;;;34.43;42.12;98237.22;220007;1276;23221;-71
2022/06/30 16:53:32;;;;;;;11.00;9.90;;;;;;;34.49;42.02;98227.35;219724;1276;24161;-72
2022/06/30 16:58:34;;;;;;;10.70;9.70;;;;;;;34.59;41.84;98215.48;220122;1276;26476;-71
2022/06/30 17:03:36;;;;;;;10.90;9.70;;;;;;;34.59;41.24;98212.05;219806;1276;26545;-71
2022/06/30 17:08:39;;;;;;;11.10;10.20;;;;;;;34.62;41.14;98213.20;219757;1277;22545;-71
2022/06/30 17:13:45;;;;;;;10.60;9.70;;;;;;;34.82;41.22;98215.72;219932;1278;24312;-70
2022/06/30 17:18:48;;;;;;;10.50;9.60;;;;;;;35.72;41.21;98219.75;219873;1276;22568;-70
2022/06/30 17:23:50;;;;;;;10.40;9.50;;;;;;;36.36;40.35;98228.13;219867;1278;24326;-72
2022/06/30 17:28:56;;;;;;;10.80;9.80;;;;;;;36.61;39.46;98224.95;219132;1277;22841;-72
2022/06/30 17:33:59;;;;;;;12.40;10.20;;;;;;;36.40;39.04;98217.37;219805;1277;24364;-73
2022/06/30 17:39:02;;;;;;;10.90;10.10;;;;;;;35.98;39.26;98222.52;219860;1277;22567;-70
2022/06/30 17:44:15;;;;;;;11.10;10.10;;;;;;;35.13;39.47;98236.83;219717;1277;22485;-71
2022/06/30 17:49:21;;;;;;;12.80;11.20;;;;;;;34.10;40.39;98249.00;219928;1276;22538;-72
2022/06/30 17:54:24;;;;;;;13.40;12.20;;;;;;;33.20;41.58;98251.13;219155;1276;24283;-70
2022/06/30 17:59:30;;;;;;;13.80;12.50;;;;;;;32.36;42.51;98256.00;219756;1276;22631;-72
2022/06/30 18:04:32;;;;;;;12.80;11.50;;;;;;;31.63;43.30;98260.67;219243;1276;22610;-70
2022/06/30 18:15:23;;;;;;;13.20;12.00;;;;;;;30.38;45.52;98291.27;219934;1277;25081;-70
2022/06/30 18:20:25;;;;;;;12.90;11.70;;;;;;;29.89;46.34;98291.76;220088;1276;22625;-71
2022/06/30 18:25:27;;;;;;;14.30;12.00;;;;;;;29.49;47.27;98285.70;220143;1276;23123;-71
2022/06/30 18:30:30;;;;;;;14.20;13.00;;;;;;;29.15;48.09;98275.38;220243;1276;22603;-71
2022/06/30 18:35:33;;;;;;;14.30;13.00;;;;;;;28.86;48.70;98272.10;220114;1277;22571;-70
2022/06/30 18:40:35;;;;;;;15.00;13.40;;;;;;;28.58;49.35;98266.08;219792;1277;22576;-71
2022/06/30 18:45:41;;;;;;;14.50;12.70;;;;;;;28.30;49.85;98262.81;219671;1276;22979;-72
2022/06/30 18:50:44;;;;;;;14.70;13.20;;;;;;;28.06;50.65;98267.39;220062;1276;22787;-71
2022/06/30 18:55:46;;;;;;;13.60;12.30;;;;;;;27.85;51.04;98264.30;219925;1276;22541;-71
2022/06/30 19:00:48;;;;;;;13.80;12.50;;;;;;;27.65;51.07;98269.09;219739;1276;25384;-70
2022/06/30 19:05:51;;;;;;;14.80;13.30;;;;;;;27.46;51.60;98264.27;219554;1277;22936;-72
2022/06/30 19:10:55;;;;;;;15.70;14.10;;;;;;;27.26;52.12;98260.42;219769;1276;24351;-71
2022/06/30 19:15:58;;;;;;;16.30;14.40;;;;;;;27.06;52.57;98262.72;219643;1276;25395;-70
2022/06/30 19:21:02;;;;;;;16.10;14.50;;;;;;;26.86;53.09;98270.73;219600;1276;23361;-71
2022/06/30 19:26:13;;;;;;;15.50;14.00;;;;;;;26.69;53.83;98266.52;219809;1276;22619;-71
2022/06/30 19:31:33;;;;;;;16.30;14.60;;;;;;;26.48;54.26;98269.22;219882;1277;22568;-71
2022/06/30 19:36:35;;;;;;;15.60;14.10;;;;;;;26.30;54.90;98262.59;219961;1276;26407;-71
2022/06/30 19:41:38;;;;;;;15.80;14.30;;;;;;;26.12;55.27;98263.05;219834;1276;25407;-71
2022/06/30 19:46:41;;;;;;;16.20;14.10;;;;;;;25.94;55.60;98260.91;219674;1276;25209;-71
2022/06/30 19:51:43;;;;;;;16.10;14.60;;;;;;;25.78;56.10;98262.52;219870;1276;24266;-73
2022/06/30 19:56:46;;;;;;;15.40;14.00;;;;;;;25.62;56.54;98269.13;219731;1276;22639;-71
2022/06/30 20:01:48;;;;;;;14.30;13.00;;;;;;;25.46;56.86;98264.35;219673;1276;22715;-71
2022/06/30 20:06:52;;;;;;;15.30;13.80;;;;;;;25.32;57.23;98261.84;219766;1276;22589;-70
2022/06/30 20:11:56;;;;;;;14.40;13.10;;;;;;;25.20;57.65;98260.09;219813;1276;22738;-74
2022/06/30 20:16:59;;;;;;;16.30;14.70;;;;;;;25.09;57.77;98252.30;219896;1276;22677;-70
2022/06/30 20:22:02;;;;;;;15.70;14.30;;;;;;;25.02;58.35;98255.16;219701;1276;22718;-70
2022/06/30 20:27:04;;;;;;;16.20;14.70;;;;;;;24.97;58.37;98252.29;219181;1276;24431;-71
2022/06/30 20:32:07;;;;;;;16.30;14.50;;;;;;;24.92;58.42;98246.98;219296;1276;22569;-73
2022/06/30 20:37:10;;;;;;;18.00;16.30;;;;;;;24.86;58.74;98242.86;219650;1276;24336;-70
2022/06/30 20:42:25;;;;;;;18.80;16.10;;;;;;;24.81;58.97;98243.35;219726;1276;24062;-71
2022/06/30 20:52:57;;;;;;;18.90;16.90;;;;;;;24.64;59.60;98253.95;219653;1276;25380;-71
2022/06/30 20:57:59;;;;;;;18.70;16.90;;;;;;;24.56;59.89;98258.17;219731;1276;22620;-71
2022/06/30 21:03:01;;;;;;;21.60;19.40;;;;;;;24.49;60.15;98252.56;219660;1276;26355;-72
2022/06/30 21:08:04;;;;;;;21.10;17.70;;;;;;;24.44;60.45;98252.83;219693;1276;22628;-70
2022/06/30 21:13:06;;;;;;;20.30;17.80;;;;;;;24.40;60.63;98257.59;219689;1276;25471;-72
2022/06/30 21:18:09;;;;;;;17.90;16.00;;;;;;;24.34;60.95;98256.03;219234;1276;25420;-72
2022/06/30 21:23:12;;;;;;;20.00;16.40;;;;;;;24.28;61.25;98254.86;219734;1276;22541;-70
2022/06/30 21:28:17;;;;;;;20.30;17.70;;;;;;;24.20;61.51;98250.42;219701;1276;25489;-70
2022/06/30 21:33:20;;;;;;;18.70;16.60;;;;;;;24.11;61.79;98247.38;219788;1276;23839;-72
2022/06/30 21:38:25;;;;;;;18.20;16.50;;;;;;;24.00;61.96;98249.89;219378;1276;25507;-71
2022/06/30 21:43:28;;;;;;;19.00;16.60;;;;;;;23.89;62.16;98246.36;219728;1276;26388;-71
2022/06/30 21:48:30;;;;;;;17.60;15.90;;;;;;;23.77;62.18;98249.77;219880;1276;22628;-70
2022/06/30 21:53:33;;;;;;;18.70;16.70;;;;;;;23.64;62.79;98259.91;219831;1276;25319;-70
2022/06/30 21:58:38;;;;;;;18.70;16.80;;;;;;;23.54;63.24;98264.96;219714;1276;22541;-71
2022/06/30 22:03:45;;;;;;;20.10;18.00;;;;;;;23.42;63.94;98269.33;219661;1276;25259;-71
2022/06/30 22:08:47;;;;;;;18.50;16.60;;;;;;;23.26;64.47;98270.52;219854;1276;24530;-70
2022/06/30 22:13:55;;;;;;;18.60;16.60;;;;;;;23.03;64.85;98269.95;219811;1276;22641;-72
2022/06/30 22:19:10;;;;;;;17.30;15.30;;;;;;;22.86;65.39;98266.60;219707;1276;25274;-70
2022/06/30 22:24:12;;;;;;;17.50;15.80;;;;;;;22.73;65.87;98260.05;219650;1276;25243;-70
2022/06/30 22:29:23;;;;;;;18.60;16.80;;;;;;;22.65;66.38;98258.53;219188;1276;25341;-71
2022/06/30 22:34:25;;;;;;;17.60;15.90;;;;;;;22.58;67.01;98258.73;219649;1276;25264;-71
2022/06/30 22:39:29;;;;;;;18.00;16.20;;;;;;;22.47;67.36;98257.17;219870;1276;22609;-71
2022/06/30 22:44:37;;;;;;;17.90;16.00;;;;;;;22.37;67.83;98256.41;219940;1276;22544;-71
2022/06/30 22:49:46;;;;;;;17.90;16.10;;;;;;;22.31;68.32;98263.05;219763;1276;22573;-70
2022/06/30 22:54:49;;;;;;;17.60;15.90;;;;;;;22.26;68.86;98262.95;219688;1276;22546;-72
2022/06/30 22:59:51;;;;;;;19.00;16.10;;;;;;;22.20;69.07;98256.20;219607;1276;22541;-70
2022/06/30 23:04:59;;;;;;;17.80;15.90;;;;;;;22.16;69.36;98249.78;219256;1276;22639;-71
2022/06/30 23:10:05;;;;;;;17.70;15.80;;;;;;;22.12;69.54;98243.83;219743;1275;22600;-70
2022/06/30 23:15:14;;;;;;;18.30;16.50;;;;;;;22.08;69.95;98239.73;219644;1276;22566;-71
2022/06/30 23:20:17;;;;;;;17.10;15.50;;;;;;;22.02;70.05;98236.67;219804;1276;22566;-70
2022/06/30 23:25:19;;;;;;;17.10;15.40;;;;;;;21.97;70.16;98236.63;219631;1276;22553;-71
2022/06/30 23:30:25;;;;;;;18.40;16.50;;;;;;;21.92;70.26;98230.98;219660;1276;22575;-71
2022/06/30 23:35:42;;;;;;;18.30;16.60;;;;;;;21.86;70.37;98230.69;219705;1276;22538;-70
2022/06/30 23:40:54;;;;;;;19.50;17.50;;;;;;;21.80;70.55;98234.70;219795;1276;25487;-71
2022/06/30 23:46:01;;;;;;;18.20;16.30;;;;;;;21.74;70.83;98239.15;219727;1276;22717;-70
2022/06/30 23:51:03;;;;;;;17.50;15.80;;;;;;;21.67;71.09;98229.67;219345;1276;22569;-71
2022/06/30 23:56:09;;;;;;;18.40;16.40;;;;;;;21.60;71.19;98225.55;219949;1276;25435;-70
